Time;durP1;ratioP1;P1;durP2;ratioP2;P2;SDS_P1;SDS_P2;PMS_P1;PMS_P2;Temp;Humidity;BMP_temperature;BMP_pressure;BME280_temperature;BME280_humidity;BME280_pressure;Samples;Min_cycle;Max_cycle;Signal;HPM_P1;HPM_P2
2022/01/10 18:02:53;;;;;;;54.95;19.08;;;;;;;3.97;81.38;100950.91;4979251;28;20744;-88
2022/01/10 18:05:21;;;;;;;56.58;21.45;;;;;;;3.96;81.48;100950.06;4937838;28;20099;-88
2022/01/10 18:08:08;;;;;;;58.13;20.10;;;;;;;3.98;81.33;100961.38;4933948;28;20046;-88
2022/01/10 18:10:35;;;;;;;59.75;20.25;;;;;;;3.99;81.24;100959.59;4922564;28;20046;-88
2022/01/10 18:46:48;;;;;;;57.67;22.55;;;;;;;4.75;77.45;100992.16;4985854;27;20691;-77
2022/01/10 18:49:15;;;;;;;59.47;20.95;;;;;;;4.58;77.78;100995.56;4926134;28;20073;-76
2022/01/10 18:51:42;;;;;;;47.30;18.52;;;;;;;4.47;78.17;101009.16;4992422;28;20045;-76
2022/01/10 18:54:08;;;;;;;51.78;18.92;;;;;;;4.37;78.27;101007.88;5047119;28;20408;-76
2022/01/10 18:56:36;;;;;;;50.38;18.52;;;;;;;4.30;78.70;101007.31;4992910;28;20372;-77
2022/01/10 18:59:10;;;;;;;56.85;22.27;;;;;;;4.23;78.39;101018.16;5026980;28;20082;-77
2022/01/10 19:01:38;;;;;;;61.65;22.02;;;;;;;4.19;78.58;101019.19;5026249;28;20094;-77
2022/01/10 19:04:05;;;;;;;53.38;18.38;;;;;;;4.13;78.52;101029.06;5077665;28;20057;-77
2022/01/10 19:06:34;;;;;;;49.33;18.85;;;;;;;4.09;78.44;101031.88;5044740;28;20151;-77
2022/01/10 19:09:02;;;;;;;53.63;18.30;;;;;;;4.06;78.14;101035.47;5008125;28;20044;-76
2022/01/10 19:11:29;;;;;;;80.70;24.83;;;;;;;4.03;78.41;101034.78;5014510;28;20098;-80
2022/01/10 19:13:56;;;;;;;81.15;25.13;;;;;;;3.99;78.37;101039.28;5026723;28;20495;-78
2022/01/10 19:16:25;;;;;;;54.53;20.83;;;;;;;3.97;78.03;101041.16;5051758;28;20037;-79
2022/01/10 19:18:54;;;;;;;54.83;19.50;;;;;;;3.94;78.22;101040.41;5043013;28;20403;-78
2022/01/10 19:21:23;;;;;;;63.97;21.05;;;;;;;3.92;78.27;101051.00;5018628;28;20043;-78
2022/01/10 19:23:53;;;;;;;56.85;19.75;;;;;;;3.89;78.30;101051.97;5063464;28;20118;-79
2022/01/10 19:26:20;;;;;;;56.00;20.50;;;;;;;3.88;78.29;101057.28;5046135;28;20041;-79
2022/01/10 19:28:47;;;;;;;59.97;21.48;;;;;;;3.87;78.04;101060.84;5039921;28;20056;-79
2022/01/10 19:31:19;;;;;;;58.00;20.00;;;;;;;3.86;77.87;101061.75;5030447;28;20037;-79
2022/01/10 19:33:48;;;;;;;53.80;20.67;;;;;;;3.84;78.13;101063.56;5017017;28;20034;-80
2022/01/10 19:36:15;;;;;;;56.50;20.02;;;;;;;3.82;78.23;101071.53;5037249;28;20090;-79
2022/01/10 19:38:41;;;;;;;57.08;21.05;;;;;;;3.82;77.97;101071.53;5037488;28;20041;-79
2022/01/10 19:41:09;;;;;;;61.83;21.42;;;;;;;3.82;78.28;101074.16;5045774;28;20045;-79
2022/01/10 19:43:37;;;;;;;59.92;21.42;;;;;;;3.81;78.40;101074.22;5036729;28;20045;-79
2022/01/10 19:46:05;;;;;;;60.83;21.73;;;;;;;3.82;78.65;101081.19;5033908;28;20043;-80
2022/01/10 19:48:32;;;;;;;71.40;25.60;;;;;;;3.81;78.37;101088.19;5024205;28;20052;-80
2022/01/10 19:50:58;;;;;;;61.45;22.80;;;;;;;3.80;78.34;101089.13;5022422;28;20400;-80
2022/01/10 19:53:27;;;;;;;62.67;23.65;;;;;;;3.80;78.37;101097.00;5049608;28;20069;-80
2022/01/10 19:55:55;;;;;;;62.97;21.58;;;;;;;3.79;78.60;101104.94;5007377;28;20041;-80
2022/01/10 19:58:22;;;;;;;65.93;22.17;;;;;;;3.80;78.59;101106.66;5026510;28;20048;-80
2022/01/10 20:00:53;;;;;;;67.68;21.63;;;;;;;3.79;78.50;101105.81;5013482;28;20046;-79
2022/01/10 20:03:20;;;;;;;65.63;23.10;;;;;;;3.78;78.79;101109.34;4962800;28;20056;-79
2022/01/10 20:05:47;;;;;;;68.57;24.48;;;;;;;3.79;78.55;101107.56;5021029;28;20057;-78
2022/01/10 20:08:17;;;;;;;58.92;21.02;;;;;;;3.78;78.81;101106.72;5003382;28;20045;-79
2022/01/10 20:10:47;;;;;;;50.85;19.27;;;;;;;3.80;78.90;101109.28;5026042;28;20404;-79
2022/01/10 20:13:18;;;;;;;64.03;22.85;;;;;;;3.78;78.91;101106.72;4998908;28;20095;-79
2022/01/10 20:15:47;;;;;;;63.28;22.30;;;;;;;3.80;78.73;101111.91;5034048;28;20597;-78
2022/01/10 20:18:14;;;;;;;69.00;23.63;;;;;;;3.80;78.90;101109.28;5008686;28;20038;-80
2022/01/10 20:20:44;;;;;;;64.15;20.75;;;;;;;3.78;78.82;101111.13;5015192;28;20406;-83
2022/01/10 20:23:11;;;;;;;64.18;25.52;;;;;;;3.80;78.87;101119.78;5010920;28;20045;-79
2022/01/10 20:25:37;;;;;;;69.30;23.65;;;;;;;3.79;78.89;101124.22;5023897;28;20060;-80
2022/01/10 20:28:05;;;;;;;63.40;23.33;;;;;;;3.80;79.13;101125.06;5011713;28;20088;-79
2022/01/10 20:30:33;;;;;;;62.63;25.00;;;;;;;3.79;79.01;101132.09;5015114;28;20041;-79
2022/01/10 20:33:00;;;;;;;63.28;24.15;;;;;;;3.80;79.07;101127.69;5003940;28;20049;-79
2022/01/10 20:35:30;;;;;;;62.65;21.70;;;;;;;3.78;79.08;101129.50;5020452;28;20518;-79
2022/01/10 20:37:57;;;;;;;66.10;21.00;;;;;;;3.79;79.01;101131.22;5030951;28;20116;-79
2022/01/10 20:40:25;;;;;;;67.07;24.92;;;;;;;3.78;79.37;101126.88;4986710;28;20164;-82
2022/01/10 20:42:54;;;;;;;90.18;29.80;;;;;;;3.79;79.14;101124.22;5024092;28;20083;-79
2022/01/10 20:45:21;;;;;;;93.18;30.85;;;;;;;3.79;79.12;101129.47;4986806;28;20483;-79
2022/01/10 20:47:48;;;;;;;79.07;30.23;;;;;;;3.79;79.51;101132.09;5003407;28;20063;-79
2022/01/10 20:50:16;;;;;;;80.20;28.40;;;;;;;3.78;79.32;101135.59;5004175;28;20633;-83
2022/01/10 20:52:45;;;;;;;86.85;27.90;;;;;;;3.78;79.60;101132.97;5009201;28;21161;-79
2022/01/10 20:55:12;;;;;;;86.28;26.73;;;;;;;3.79;79.53;101132.09;5025938;28;20045;-79
2022/01/10 20:57:40;;;;;;;78.88;26.77;;;;;;;3.78;79.51;101127.72;5005507;28;20041;-80
2022/01/10 21:00:08;;;;;;;91.55;26.98;;;;;;;3.79;79.30;101132.09;4991779;28;20052;-82
2022/01/10 21:02:35;;;;;;;96.15;28.48;;;;;;;3.79;79.69;101139.09;5022736;28;20095;-78
2022/01/10 21:05:03;;;;;;;79.15;24.88;;;;;;;3.80;79.44;101141.66;5024990;28;20084;-79
2022/01/10 21:07:31;;;;;;;86.53;26.65;;;;;;;3.78;79.62;101145.28;5009113;28;20049;-79
2022/01/10 21:09:59;;;;;;;91.63;30.05;;;;;;;3.79;79.72;101145.22;5013200;28;20119;-80
2022/01/10 21:12:28;;;;;;;83.47;29.25;;;;;;;3.79;79.48;101146.97;4993666;28;20503;-80
2022/01/10 21:14:56;;;;;;;92.28;31.13;;;;;;;3.78;79.66;101148.75;5008995;28;20041;-81
2022/01/10 21:17:26;;;;;;;87.55;27.42;;;;;;;3.78;79.56;101151.38;5013103;28;20518;-81
2022/01/10 21:19:53;;;;;;;90.05;30.73;;;;;;;3.79;79.62;101158.34;4993131;28;20528;-81
2022/01/10 21:22:20;;;;;;;90.90;28.38;;;;;;;3.80;79.57;101156.59;5018945;28;20044;-82
2022/01/10 21:24:47;;;;;;;91.57;28.88;;;;;;;3.80;79.71;101159.22;5032193;28;20053;-80
2022/01/10 21:27:14;;;;;;;79.78;29.27;;;;;;;3.78;79.71;101156.63;5003525;28;20045;-80
2022/01/10 21:29:41;;;;;;;90.97;29.00;;;;;;;3.78;79.75;101156.63;5009157;28;20387;-81
2022/01/10 21:32:07;;;;;;;90.63;30.58;;;;;;;3.78;79.81;101161.88;5002375;28;20049;-80
2022/01/10 21:34:35;;;;;;;121.90;35.20;;;;;;;3.79;79.62;101165.38;5032760;28;20042;-77
2022/01/10 21:37:04;;;;;;;119.45;32.55;;;;;;;3.77;79.52;101173.31;5018671;28;20049;-79
2022/01/10 21:39:33;;;;;;;136.95;39.05;;;;;;;3.76;79.58;101171.59;5006194;28;20053;-82
2022/01/10 21:42:00;;;;;;;111.40;32.38;;;;;;;3.77;79.64;101169.84;5000186;28;20051;-78
2022/01/10 21:44:26;;;;;;;70.75;26.92;;;;;;;3.77;79.58;101175.94;4990335;28;20399;-79
2022/01/10 21:46:53;;;;;;;77.82;26.15;;;;;;;3.76;79.46;101187.34;5009036;28;20045;-79
2022/01/10 21:49:20;;;;;;;70.38;23.90;;;;;;;3.75;79.78;101180.41;5029938;28;20057;-79
2022/01/10 21:51:46;;;;;;;66.38;23.48;;;;;;;3.74;79.52;101181.31;5017977;28;20041;-79
2022/01/10 21:54:13;;;;;;;75.60;24.60;;;;;;;3.73;79.62;101182.22;5002519;28;20041;-79
2022/01/10 21:56:40;;;;;;;76.28;25.50;;;;;;;3.74;79.91;101190.94;5012200;28;20496;-79
2022/01/10 21:59:29;;;;;;;63.30;22.50;;;;;;;3.72;79.77;101192.81;5025099;28;20049;-79
2022/01/10 22:01:55;;;;;;;80.15;25.60;;;;;;;3.71;79.76;101194.56;5015466;28;20045;-79
2022/01/10 22:04:22;;;;;;;74.13;23.63;;;;;;;3.70;79.84;101191.06;5019125;28;20044;-78
2022/01/10 22:06:50;;;;;;;59.58;21.50;;;;;;;3.70;79.76;101191.06;5005734;28;20073;-79
2022/01/10 22:09:17;;;;;;;57.42;22.08;;;;;;;3.72;79.96;101190.19;5022267;28;20041;-79
2022/01/10 22:11:46;;;;;;;60.45;21.65;;;;;;;3.70;79.79;101196.34;4992395;28;20053;-78
2022/01/10 22:14:12;;;;;;;51.60;18.63;;;;;;;3.72;79.71;101196.28;5019202;28;20041;-78
2022/01/10 22:16:39;;;;;;;56.42;19.13;;;;;;;3.72;79.77;101203.31;5006894;28;20416;-79
2022/01/10 22:19:06;;;;;;;80.85;25.15;;;;;;;3.70;79.57;101203.38;5019506;28;20044;-82
2022/01/10 22:21:34;;;;;;;76.97;23.02;;;;;;;3.69;79.83;101213.03;5015668;28;20047;-79
2022/01/10 22:24:01;;;;;;;70.10;24.77;;;;;;;3.69;79.54;101213.03;5025216;28;20052;-79
2022/01/10 22:26:28;;;;;;;70.60;24.40;;;;;;;3.68;79.73;101213.91;5007859;28;20110;-79
2022/01/10 22:28:56;;;;;;;68.18;23.65;;;;;;;3.69;79.91;101212.16;5022801;28;20041;-79
2022/01/10 22:31:23;;;;;;;55.78;19.63;;;;;;;3.68;79.72;101215.69;5018072;28;20052;-78
2022/01/10 22:33:50;;;;;;;59.03;18.90;;;;;;;3.69;79.73;101222.69;5015162;28;20065;-79
2022/01/10 22:36:17;;;;;;;58.22;20.38;;;;;;;3.68;79.71;101221.78;4991307;28;20044;-79
2022/01/10 22:38:44;;;;;;;49.25;17.17;;;;;;;3.68;79.79;101218.31;5001519;28;20515;-79
2022/01/10 22:41:12;;;;;;;59.45;19.45;;;;;;;3.68;79.79;101218.31;4998101;28;20049;-78
2022/01/10 22:43:39;;;;;;;62.67;20.48;;;;;;;3.66;79.59;101215.78;4990478;28;20502;-79
2022/01/10 22:46:06;;;;;;;69.68;21.05;;;;;;;3.66;79.81;101217.50;5021779;28;20561;-78
2022/01/10 22:48:33;;;;;;;63.65;19.63;;;;;;;3.66;79.84;101225.41;5017982;28;20037;-79
2022/01/10 22:51:01;;;;;;;68.10;22.50;;;;;;;3.66;79.76;101225.41;5034891;28;21219;-83
2022/01/10 22:53:29;;;;;;;84.72;24.52;;;;;;;3.65;79.69;101227.19;5024752;28;20048;-78
2022/01/10 22:55:55;;;;;;;82.88;24.20;;;;;;;3.64;79.65;101232.50;5007222;28;20049;-79
2022/01/10 22:58:22;;;;;;;99.18;25.35;;;;;;;3.64;79.56;101232.50;5008503;28;20040;-79
2022/01/10 23:00:49;;;;;;;79.07;25.35;;;;;;;3.64;79.58;101240.38;5025838;28;20053;-78
2022/01/10 23:03:16;;;;;;;90.15;29.63;;;;;;;3.62;79.70;101237.81;5008087;28;20107;-79
2022/01/10 23:05:43;;;;;;;83.93;28.08;;;;;;;3.62;79.91;101235.19;5013265;28;20041;-79
2022/01/10 23:08:10;;;;;;;91.18;27.67;;;;;;;3.61;79.98;101238.72;5032989;28;20369;-79
2022/01/10 23:10:37;;;;;;;95.07;29.25;;;;;;;3.61;79.77;101233.47;4992062;28;20049;-79
2022/01/10 23:13:04;;;;;;;93.15;28.25;;;;;;;3.61;79.94;101235.22;5032162;28;20120;-79
2022/01/10 23:15:32;;;;;;;94.78;29.48;;;;;;;3.61;79.88;101235.22;5006716;28;20128;-79
2022/01/10 23:17:59;;;;;;;95.50;29.52;;;;;;;3.61;80.17;101240.47;5013423;28;20072;-79
2022/01/10 23:20:30;;;;;;;85.60;28.67;;;;;;;3.58;80.22;101238.81;5003574;28;20041;-79
2022/01/10 23:22:58;;;;;;;69.88;23.25;;;;;;;3.61;80.14;101240.47;5008158;28;20114;-78
2022/01/10 23:25:25;;;;;;;72.20;24.70;;;;;;;3.61;80.25;101251.88;5032182;28;20056;-79
2022/01/10 23:27:53;;;;;;;62.22;21.85;;;;;;;3.60;80.20;101250.13;5030945;28;20120;-78
2022/01/10 23:30:20;;;;;;;56.78;20.75;;;;;;;3.60;80.13;101246.66;5030402;28;20045;-79
2022/01/10 23:32:46;;;;;;;57.40;20.90;;;;;;;3.60;80.11;101249.28;5002377;28;20068;-79
2022/01/10 23:35:14;;;;;;;60.00;20.95;;;;;;;3.59;80.22;101261.56;5043392;28;20056;-79
2022/01/10 23:37:41;;;;;;;63.50;20.65;;;;;;;3.59;80.12;101252.84;5007410;28;20056;-78
2022/01/10 23:40:08;;;;;;;56.15;21.30;;;;;;;3.59;80.01;101256.31;5004872;28;20045;-78
2022/01/10 23:42:35;;;;;;;71.25;21.83;;;;;;;3.58;79.94;101257.19;5010623;28;20046;-78
2022/01/10 23:45:04;;;;;;;70.15;23.80;;;;;;;3.58;79.84;101259.81;5024198;28;20495;-79
2022/01/10 23:47:30;;;;;;;69.07;23.15;;;;;;;3.57;80.10;101257.28;5011828;28;20053;-79
2022/01/10 23:50:01;;;;;;;65.05;23.40;;;;;;;3.58;79.97;101249.31;4989764;28;21501;-79
2022/01/10 23:52:48;;;;;;;62.08;22.77;;;;;;;3.56;80.03;101258.16;5008397;28;20045;-83
2022/01/10 23:55:17;;;;;;;62.92;22.67;;;;;;;3.57;80.06;101257.28;5019047;28;20120;-78
2022/01/10 23:57:44;;;;;;;54.70;20.00;;;;;;;3.57;80.16;101255.50;5016949;28;20064;-79
